sensor_id;sensor_type;location;lat;lon;timestamp;temperature;humidity
38936;DHT22;25541;47.458;9.644;2022-12-29T03:48:08;10.40;54.10
38936;DHT22;25541;47.458;9.644;2022-12-29T03:50:34;10.30;58.10
38936;DHT22;25541;47.458;9.644;2022-12-29T03:53:00;10.20;59.50
38936;DHT22;25541;47.458;9.644;2022-12-29T03:55:26;10.00;60.60
38936;DHT22;25541;47.458;9.644;2022-12-29T03:57:51;9.80;61.60
38936;DHT22;25541;47.458;9.644;2022-12-29T04:00:17;9.70;61.50
38936;DHT22;25541;47.458;9.644;2022-12-29T04:02:43;9.60;64.00
38936;DHT22;25541;47.458;9.644;2022-12-29T04:05:09;9.60;60.80
38936;DHT22;25541;47.458;9.644;2022-12-29T04:07:34;9.60;58.80
38936;DHT22;25541;47.458;9.644;2022-12-29T04:10:00;9.70;56.70
38936;DHT22;25541;47.458;9.644;2022-12-29T04:12:25;9.90;52.90
38936;DHT22;25541;47.458;9.644;2022-12-29T04:14:51;10.10;52.50
38936;DHT22;25541;47.458;9.644;2022-12-29T04:17:17;10.20;52.20
38936;DHT22;25541;47.458;9.644;2022-12-29T04:19:42;10.40;54.50
38936;DHT22;25541;47.458;9.644;2022-12-29T04:22:08;10.40;50.70
38936;DHT22;25541;47.458;9.644;2022-12-29T04:24:34;10.60;50.90
38936;DHT22;25541;47.458;9.644;2022-12-29T04:26:59;10.60;50.80
38936;DHT22;25541;47.458;9.644;2022-12-29T04:29:25;10.60;50.90
38936;DHT22;25541;47.458;9.644;2022-12-29T04:31:50;10.60;52.50
38936;DHT22;25541;47.458;9.644;2022-12-29T04:34:16;10.60;51.20
38936;DHT22;25541;47.458;9.644;2022-12-29T04:36:42;10.60;50.50
38936;DHT22;25541;47.458;9.644;2022-12-29T04:39:08;10.60;52.00
38936;DHT22;25541;47.458;9.644;2022-12-29T04:41:33;10.70;52.20
38936;DHT22;25541;47.458;9.644;2022-12-29T04:43:59;10.70;50.20
38936;DHT22;25541;47.458;9.644;2022-12-29T04:46:24;10.80;50.30
38936;DHT22;25541;47.458;9.644;2022-12-29T04:48:50;10.80;50.20
38936;DHT22;25541;47.458;9.644;2022-12-29T04:51:16;10.80;50.80
38936;DHT22;25541;47.458;9.644;2022-12-29T04:53:42;10.90;51.40
38936;DHT22;25541;47.458;9.644;2022-12-29T04:56:07;10.90;50.70
38936;DHT22;25541;47.458;9.644;2022-12-29T04:58:34;10.90;50.50
38936;DHT22;25541;47.458;9.644;2022-12-29T05:01:00;10.80;50.60
38936;DHT22;25541;47.458;9.644;2022-12-29T05:03:26;10.80;52.80
38936;DHT22;25541;47.458;9.644;2022-12-29T05:05:56;10.80;51.30
38936;DHT22;25541;47.458;9.644;2022-12-29T05:08:23;10.70;51.10
38936;DHT22;25541;47.458;9.644;2022-12-29T05:10:51;10.80;51.30
38936;DHT22;25541;47.458;9.644;2022-12-29T05:13:17;10.80;52.30
38936;DHT22;25541;47.458;9.644;2022-12-29T05:15:49;10.80;49.90
38936;DHT22;25541;47.458;9.644;2022-12-29T05:18:15;10.90;50.50
38936;DHT22;25541;47.458;9.644;2022-12-29T05:20:41;10.90;50.00
38936;DHT22;25541;47.458;9.644;2022-12-29T05:23:07;11.00;49.50
38936;DHT22;25541;47.458;9.644;2022-12-29T05:25:33;11.00;50.70
38936;DHT22;25541;47.458;9.644;2022-12-29T05:27:58;11.10;49.90
38936;DHT22;25541;47.458;9.644;2022-12-29T05:30:24;11.10;51.00
38936;DHT22;25541;47.458;9.644;2022-12-29T05:32:50;11.10;49.60
38936;DHT22;25541;47.458;9.644;2022-12-29T05:35:15;11.10;52.00
38936;DHT22;25541;47.458;9.644;2022-12-29T05:37:41;11.10;49.90
38936;DHT22;25541;47.458;9.644;2022-12-29T05:40:07;11.00;52.00
38936;DHT22;25541;47.458;9.644;2022-12-29T05:42:33;10.90;51.00
38936;DHT22;25541;47.458;9.644;2022-12-29T05:44:59;10.90;51.10
38936;DHT22;25541;47.458;9.644;2022-12-29T05:47:25;10.80;50.70
38936;DHT22;25541;47.458;9.644;2022-12-29T05:49:50;10.80;51.70
38936;DHT22;25541;47.458;9.644;2022-12-29T05:52:17;10.60;51.30
38936;DHT22;25541;47.458;9.644;2022-12-29T05:54:42;10.50;51.40
38936;DHT22;25541;47.458;9.644;2022-12-29T05:57:08;10.40;50.60
38936;DHT22;25541;47.458;9.644;2022-12-29T05:59:34;10.40;52.30
38936;DHT22;25541;47.458;9.644;2022-12-29T06:02:00;10.40;52.10
38936;DHT22;25541;47.458;9.644;2022-12-29T06:04:25;10.40;51.70
38936;DHT22;25541;47.458;9.644;2022-12-29T06:06:51;10.40;50.60
38936;DHT22;25541;47.458;9.644;2022-12-29T06:09:18;10.40;51.10
38936;DHT22;25541;47.458;9.644;2022-12-29T06:11:43;10.40;50.70
38936;DHT22;25541;47.458;9.644;2022-12-29T06:14:09;10.40;50.30
38936;DHT22;25541;47.458;9.644;2022-12-29T06:16:35;10.40;51.50
38936;DHT22;25541;47.458;9.644;2022-12-29T06:19:01;10.40;52.10
38936;DHT22;25541;47.458;9.644;2022-12-29T06:21:27;10.40;51.10
38936;DHT22;25541;47.458;9.644;2022-12-29T06:23:53;10.40;50.60
38936;DHT22;25541;47.458;9.644;2022-12-29T06:26:19;10.40;51.30
38936;DHT22;25541;47.458;9.644;2022-12-29T06:28:44;10.50;51.40
38936;DHT22;25541;47.458;9.644;2022-12-29T06:31:10;10.40;50.90
38936;DHT22;25541;47.458;9.644;2022-12-29T06:33:37;10.40;51.80
38936;DHT22;25541;47.458;9.644;2022-12-29T06:36:03;10.30;51.50
38936;DHT22;25541;47.458;9.644;2022-12-29T06:38:29;10.30;51.80
38936;DHT22;25541;47.458;9.644;2022-12-29T06:40:54;10.30;51.60
38936;DHT22;25541;47.458;9.644;2022-12-29T06:43:20;10.30;52.30
38936;DHT22;25541;47.458;9.644;2022-12-29T06:45:46;10.20;52.50
38936;DHT22;25541;47.458;9.644;2022-12-29T06:48:12;10.20;52.60
38936;DHT22;25541;47.458;9.644;2022-12-29T06:50:37;10.10;52.10
38936;DHT22;25541;47.458;9.644;2022-12-29T06:53:03;10.10;52.30
38936;DHT22;25541;47.458;9.644;2022-12-29T06:55:29;10.10;52.00
38936;DHT22;25541;47.458;9.644;2022-12-29T06:57:56;10.20;50.40
38936;DHT22;25541;47.458;9.644;2022-12-29T07:00:22;10.40;51.30
38936;DHT22;25541;47.458;9.644;2022-12-29T07:02:48;10.50;51.90
38936;DHT22;25541;47.458;9.644;2022-12-29T07:05:13;10.50;52.10
38936;DHT22;25541;47.458;9.644;2022-12-29T07:07:39;10.50;50.80
38936;DHT22;25541;47.458;9.644;2022-12-29T07:10:05;10.60;50.30
38936;DHT22;25541;47.458;9.644;2022-12-29T07:12:31;10.70;50.80
38936;DHT22;25541;47.458;9.644;2022-12-29T07:14:56;10.80;49.90
38936;DHT22;25541;47.458;9.644;2022-12-29T07:17:22;10.90;52.80
38936;DHT22;25541;47.458;9.644;2022-12-29T07:19:48;11.00;49.50
38936;DHT22;25541;47.458;9.644;2022-12-29T07:22:13;11.10;52.20
38936;DHT22;25541;47.458;9.644;2022-12-29T07:24:39;11.10;51.90
38936;DHT22;25541;47.458;9.644;2022-12-29T07:27:05;11.10;51.70
38936;DHT22;25541;47.458;9.644;2022-12-29T07:29:31;11.10;54.80
38936;DHT22;25541;47.458;9.644;2022-12-29T07:31:56;11.00;55.80
38936;DHT22;25541;47.458;9.644;2022-12-29T07:34:22;10.90;55.80
38936;DHT22;25541;47.458;9.644;2022-12-29T07:36:48;10.80;57.30
38936;DHT22;25541;47.458;9.644;2022-12-29T07:39:13;10.70;57.30
38936;DHT22;25541;47.458;9.644;2022-12-29T07:41:39;10.70;54.90
38936;DHT22;25541;47.458;9.644;2022-12-29T07:44:04;10.60;54.10
38936;DHT22;25541;47.458;9.644;2022-12-29T07:46:30;10.60;54.60
38936;DHT22;25541;47.458;9.644;2022-12-29T07:48:56;10.60;54.40
38936;DHT22;25541;47.458;9.644;2022-12-29T07:51:21;10.60;54.70
38936;DHT22;25541;47.458;9.644;2022-12-29T07:53:47;10.60;53.20
38936;DHT22;25541;47.458;9.644;2022-12-29T07:56:13;10.70;52.20
38936;DHT22;25541;47.458;9.644;2022-12-29T07:58:38;10.90;51.90
38936;DHT22;25541;47.458;9.644;2022-12-29T08:01:04;10.90;51.80
38936;DHT22;25541;47.458;9.644;2022-12-29T08:03:30;11.00;51.40
38936;DHT22;25541;47.458;9.644;2022-12-29T08:05:57;11.00;51.00
38936;DHT22;25541;47.458;9.644;2022-12-29T08:08:22;11.10;50.60
38936;DHT22;25541;47.458;9.644;2022-12-29T08:10:48;11.10;51.10
38936;DHT22;25541;47.458;9.644;2022-12-29T08:13:14;11.10;50.80
38936;DHT22;25541;47.458;9.644;2022-12-29T08:15:39;11.20;50.20
38936;DHT22;25541;47.458;9.644;2022-12-29T08:18:05;11.20;50.00
38936;DHT22;25541;47.458;9.644;2022-12-29T08:20:31;11.30;49.40
38936;DHT22;25541;47.458;9.644;2022-12-29T08:22:57;11.40;49.90
38936;DHT22;25541;47.458;9.644;2022-12-29T08:25:23;11.50;49.90
38936;DHT22;25541;47.458;9.644;2022-12-29T08:27:48;11.50;50.80
38936;DHT22;25541;47.458;9.644;2022-12-29T08:30:14;11.50;50.20
38936;DHT22;25541;47.458;9.644;2022-12-29T08:32:40;11.60;50.60
38936;DHT22;25541;47.458;9.644;2022-12-29T08:35:06;11.60;49.60
38936;DHT22;25541;47.458;9.644;2022-12-29T08:37:33;11.60;50.00
38936;DHT22;25541;47.458;9.644;2022-12-29T08:39:58;11.60;50.00
38936;DHT22;25541;47.458;9.644;2022-12-29T08:42:25;11.50;51.20
38936;DHT22;25541;47.458;9.644;2022-12-29T08:44:56;11.40;53.70
38936;DHT22;25541;47.458;9.644;2022-12-29T08:47:22;11.30;53.40
38936;DHT22;25541;47.458;9.644;2022-12-29T08:49:48;11.20;53.00
38936;DHT22;25541;47.458;9.644;2022-12-29T08:52:14;11.10;51.60
38936;DHT22;25541;47.458;9.644;2022-12-29T08:54:40;11.20;50.60
38936;DHT22;25541;47.458;9.644;2022-12-29T08:57:05;11.30;51.40
38936;DHT22;25541;47.458;9.644;2022-12-29T08:59:31;11.20;50.70
38936;DHT22;25541;47.458;9.644;2022-12-29T09:01:56;11.30;51.80
38936;DHT22;25541;47.458;9.644;2022-12-29T09:04:22;11.40;50.30
38936;DHT22;25541;47.458;9.644;2022-12-29T09:06:49;11.50;50.80
38936;DHT22;25541;47.458;9.644;2022-12-29T09:09:15;11.60;49.70
38936;DHT22;25541;47.458;9.644;2022-12-29T09:11:41;11.90;49.50
38936;DHT22;25541;47.458;9.644;2022-12-29T09:14:07;12.00;47.80
38936;DHT22;25541;47.458;9.644;2022-12-29T09:16:34;12.20;49.30
38936;DHT22;25541;47.458;9.644;2022-12-29T09:19:00;12.20;49.20
38936;DHT22;25541;47.458;9.644;2022-12-29T09:21:26;12.30;48.70
38936;DHT22;25541;47.458;9.644;2022-12-29T09:23:52;12.40;48.20
38936;DHT22;25541;47.458;9.644;2022-12-29T09:26:17;12.50;50.00
38936;DHT22;25541;47.458;9.644;2022-12-29T09:28:43;12.60;48.80
38936;DHT22;25541;47.458;9.644;2022-12-29T09:31:10;12.70;47.30
38936;DHT22;25541;47.458;9.644;2022-12-29T09:33:35;12.70;47.70
38936;DHT22;25541;47.458;9.644;2022-12-29T09:36:02;12.80;46.70
38936;DHT22;25541;47.458;9.644;2022-12-29T09:38:28;12.80;49.70
38936;DHT22;25541;47.458;9.644;2022-12-29T09:41:06;12.90;47.70
38936;DHT22;25541;47.458;9.644;2022-12-29T09:46:27;13.00;46.40
38936;DHT22;25541;47.458;9.644;2022-12-29T09:49:24;13.00;49.20
38936;DHT22;25541;47.458;9.644;2022-12-29T09:51:54;13.00;48.80
38936;DHT22;25541;47.458;9.644;2022-12-29T09:54:36;13.10;45.50
38936;DHT22;25541;47.458;9.644;2022-12-29T09:57:19;13.20;47.10
38936;DHT22;25541;47.458;9.644;2022-12-29T09:59:49;13.30;46.20
38936;DHT22;25541;47.458;9.644;2022-12-29T10:05:00;13.60;46.10
38936;DHT22;25541;47.458;9.644;2022-12-29T10:07:46;13.70;47.00
38936;DHT22;25541;47.458;9.644;2022-12-29T10:10:34;14.40;46.10
38936;DHT22;25541;47.458;9.644;2022-12-29T10:16:24;15.30;43.30
38936;DHT22;25541;47.458;9.644;2022-12-29T10:24:21;15.20;43.10
38936;DHT22;25541;47.458;9.644;2022-12-29T10:26:49;14.90;43.50
38936;DHT22;25541;47.458;9.644;2022-12-29T10:29:22;14.90;45.10
38936;DHT22;25541;47.458;9.644;2022-12-29T10:32:00;14.80;45.20
38936;DHT22;25541;47.458;9.644;2022-12-29T10:34:37;15.20;42.70
38936;DHT22;25541;47.458;9.644;2022-12-29T10:39:55;15.80;42.40
38936;DHT22;25541;47.458;9.644;2022-12-29T10:44:55;15.90;42.20
38936;DHT22;25541;47.458;9.644;2022-12-29T10:47:28;15.90;42.20
38936;DHT22;25541;47.458;9.644;2022-12-29T10:49:54;15.80;44.00
38936;DHT22;25541;47.458;9.644;2022-12-29T10:52:22;15.70;44.20
38936;DHT22;25541;47.458;9.644;2022-12-29T10:55:05;15.50;42.60
38936;DHT22;25541;47.458;9.644;2022-12-29T10:57:44;15.50;43.70
38936;DHT22;25541;47.458;9.644;2022-12-29T11:00:17;15.60;47.10
38936;DHT22;25541;47.458;9.644;2022-12-29T11:08:01;15.60;43.30
38936;DHT22;25541;47.458;9.644;2022-12-29T11:13:04;15.30;42.90
38936;DHT22;25541;47.458;9.644;2022-12-29T11:18:24;15.20;43.20
38936;DHT22;25541;47.458;9.644;2022-12-29T11:20:56;15.10;43.30
38936;DHT22;25541;47.458;9.644;2022-12-29T11:23:41;15.00;43.50
38936;DHT22;25541;47.458;9.644;2022-12-29T11:28:32;14.90;42.60
38936;DHT22;25541;47.458;9.644;2022-12-29T11:31:03;15.00;43.90
38936;DHT22;25541;47.458;9.644;2022-12-29T11:33:33;15.10;43.40
38936;DHT22;25541;47.458;9.644;2022-12-29T11:36:02;15.20;43.40
38936;DHT22;25541;47.458;9.644;2022-12-29T11:38:41;15.30;42.20
38936;DHT22;25541;47.458;9.644;2022-12-29T11:41:12;15.40;43.00
38936;DHT22;25541;47.458;9.644;2022-12-29T11:43:40;15.50;42.20
38936;DHT22;25541;47.458;9.644;2022-12-29T11:46:15;15.50;43.60
38936;DHT22;25541;47.458;9.644;2022-12-29T11:48:42;15.60;42.90
38936;DHT22;25541;47.458;9.644;2022-12-29T11:51:09;15.60;45.50
38936;DHT22;25541;47.458;9.644;2022-12-29T11:56:10;15.60;43.10
38936;DHT22;25541;47.458;9.644;2022-12-29T11:58:38;15.70;44.80
38936;DHT22;25541;47.458;9.644;2022-12-29T12:01:52;15.80;43.60
38936;DHT22;25541;47.458;9.644;2022-12-29T12:04:15;15.70;44.70
38936;DHT22;25541;47.458;9.644;2022-12-29T12:06:46;15.60;42.60
38936;DHT22;25541;47.458;9.644;2022-12-29T12:09:25;15.50;42.40
38936;DHT22;25541;47.458;9.644;2022-12-29T12:11:54;15.40;44.30
38936;DHT22;25541;47.458;9.644;2022-12-29T12:14:25;15.40;43.20
38936;DHT22;25541;47.458;9.644;2022-12-29T12:16:55;15.30;44.30
38936;DHT22;25541;47.458;9.644;2022-12-29T12:19:44;15.20;44.30
38936;DHT22;25541;47.458;9.644;2022-12-29T12:23:12;15.20;43.80
38936;DHT22;25541;47.458;9.644;2022-12-29T12:25:21;15.10;43.30
38936;DHT22;25541;47.458;9.644;2022-12-29T12:28:01;15.10;44.70
38936;DHT22;25541;47.458;9.644;2022-12-29T12:30:31;15.10;44.30
38936;DHT22;25541;47.458;9.644;2022-12-29T12:51:42;15.00;43.20
38936;DHT22;25541;47.458;9.644;2022-12-29T12:57:53;15.00;43.70
38936;DHT22;25541;47.458;9.644;2022-12-29T12:59:56;15.00;43.00
38936;DHT22;25541;47.458;9.644;2022-12-29T13:03:35;14.90;42.80
38936;DHT22;25541;47.458;9.644;2022-12-29T13:09:14;14.90;42.60
38936;DHT22;25541;47.458;9.644;2022-12-29T13:12:07;15.00;43.80
38936;DHT22;25541;47.458;9.644;2022-12-29T13:14:47;15.00;43.00
38936;DHT22;25541;47.458;9.644;2022-12-29T13:17:34;15.10;43.50
38936;DHT22;25541;47.458;9.644;2022-12-29T13:22:50;15.20;44.10
38936;DHT22;25541;47.458;9.644;2022-12-29T13:28:31;15.30;49.10
38936;DHT22;25541;47.458;9.644;2022-12-29T13:31:12;15.10;50.30
38936;DHT22;25541;47.458;9.644;2022-12-29T13:36:32;14.90;52.10
38936;DHT22;25541;47.458;9.644;2022-12-29T13:39:37;14.90;52.10
38936;DHT22;25541;47.458;9.644;2022-12-29T13:42:05;14.80;53.10
38936;DHT22;25541;47.458;9.644;2022-12-29T13:44:37;14.60;53.00
38936;DHT22;25541;47.458;9.644;2022-12-29T13:47:34;14.60;52.90
38936;DHT22;25541;47.458;9.644;2022-12-29T13:50:05;14.50;53.30
38936;DHT22;25541;47.458;9.644;2022-12-29T13:52:45;14.40;52.90
38936;DHT22;25541;47.458;9.644;2022-12-29T14:00:16;14.30;53.60
38936;DHT22;25541;47.458;9.644;2022-12-29T14:07:44;14.20;53.10
38936;DHT22;25541;47.458;9.644;2022-12-29T14:10:46;14.20;53.30
38936;DHT22;25541;47.458;9.644;2022-12-29T14:13:21;14.20;53.70
38936;DHT22;25541;47.458;9.644;2022-12-29T14:15:55;14.00;54.00
38936;DHT22;25541;47.458;9.644;2022-12-29T14:18:33;14.00;54.80
38936;DHT22;25541;47.458;9.644;2022-12-29T14:21:17;13.90;54.60
38936;DHT22;25541;47.458;9.644;2022-12-29T14:23:46;13.90;55.40
38936;DHT22;25541;47.458;9.644;2022-12-29T14:26:39;13.90;55.40
38936;DHT22;25541;47.458;9.644;2022-12-29T14:34:59;13.80;55.90
38936;DHT22;25541;47.458;9.644;2022-12-29T14:37:34;13.70;55.20
38936;DHT22;25541;47.458;9.644;2022-12-29T14:43:14;13.50;56.00
38936;DHT22;25541;47.458;9.644;2022-12-29T14:45:55;13.40;55.70
38936;DHT22;25541;47.458;9.644;2022-12-29T14:48:39;13.40;56.40
38936;DHT22;25541;47.458;9.644;2022-12-29T14:51:18;13.40;56.80
38936;DHT22;25541;47.458;9.644;2022-12-29T14:53:50;13.40;56.70
38936;DHT22;25541;47.458;9.644;2022-12-29T14:56:25;13.20;57.30
38936;DHT22;25541;47.458;9.644;2022-12-29T14:58:54;13.10;57.40
38936;DHT22;25541;47.458;9.644;2022-12-29T15:01:40;13.10;54.30
38936;DHT22;25541;47.458;9.644;2022-12-29T15:04:20;13.10;57.30
38936;DHT22;25541;47.458;9.644;2022-12-29T15:06:48;13.10;61.10
38936;DHT22;25541;47.458;9.644;2022-12-29T15:09:41;13.10;61.50
38936;DHT22;25541;47.458;9.644;2022-12-29T15:12:15;13.00;63.10
38936;DHT22;25541;47.458;9.644;2022-12-29T15:14:53;12.90;63.70
38936;DHT22;25541;47.458;9.644;2022-12-29T15:17:30;12.90;63.80
38936;DHT22;25541;47.458;9.644;2022-12-29T15:19:58;12.80;64.10
38936;DHT22;25541;47.458;9.644;2022-12-29T15:22:24;12.70;64.90
38936;DHT22;25541;47.458;9.644;2022-12-29T15:24:52;12.70;64.50
38936;DHT22;25541;47.458;9.644;2022-12-29T15:27:23;12.70;64.70
38936;DHT22;25541;47.458;9.644;2022-12-29T15:29:57;12.60;63.80
38936;DHT22;25541;47.458;9.644;2022-12-29T15:32:28;12.60;64.50
38936;DHT22;25541;47.458;9.644;2022-12-29T15:34:56;12.60;64.10
38936;DHT22;25541;47.458;9.644;2022-12-29T15:37:27;12.50;65.10
38936;DHT22;25541;47.458;9.644;2022-12-29T15:39:54;12.50;64.80
38936;DHT22;25541;47.458;9.644;2022-12-29T15:42:50;12.50;65.80
38936;DHT22;25541;47.458;9.644;2022-12-29T15:45:19;12.30;64.90
38936;DHT22;25541;47.458;9.644;2022-12-29T15:47:46;12.30;66.00
38936;DHT22;25541;47.458;9.644;2022-12-29T15:50:23;12.20;66.50
38936;DHT22;25541;47.458;9.644;2022-12-29T15:52:51;12.20;66.70
38936;DHT22;25541;47.458;9.644;2022-12-29T15:55:38;12.10;67.80
38936;DHT22;25541;47.458;9.644;2022-12-29T15:58:15;12.00;67.20
38936;DHT22;25541;47.458;9.644;2022-12-29T16:00:54;11.90;67.20
38936;DHT22;25541;47.458;9.644;2022-12-29T16:03:21;11.90;67.00
38936;DHT22;25541;47.458;9.644;2022-12-29T16:06:10;11.80;66.70
38936;DHT22;25541;47.458;9.644;2022-12-29T16:08:38;11.80;67.70
38936;DHT22;25541;47.458;9.644;2022-12-29T16:11:22;11.70;68.70
38936;DHT22;25541;47.458;9.644;2022-12-29T16:13:51;11.60;68.40
38936;DHT22;25541;47.458;9.644;2022-12-29T16:16:36;11.60;69.00
38936;DHT22;25541;47.458;9.644;2022-12-29T16:19:19;11.60;69.50
38936;DHT22;25541;47.458;9.644;2022-12-29T16:21:47;11.60;69.90
38936;DHT22;25541;47.458;9.644;2022-12-29T16:24:16;11.50;69.00
38936;DHT22;25541;47.458;9.644;2022-12-29T16:26:48;11.50;69.80
38936;DHT22;25541;47.458;9.644;2022-12-29T16:29:15;11.40;69.40
38936;DHT22;25541;47.458;9.644;2022-12-29T16:34:29;11.30;70.10
38936;DHT22;25541;47.458;9.644;2022-12-29T16:39:49;11.40;69.90
38936;DHT22;25541;47.458;9.644;2022-12-29T16:50:33;11.40;70.30
38936;DHT22;25541;47.458;9.644;2022-12-29T16:53:00;11.40;70.40
38936;DHT22;25541;47.458;9.644;2022-12-29T16:55:26;11.30;69.80
38936;DHT22;25541;47.458;9.644;2022-12-29T16:57:53;11.40;69.40
38936;DHT22;25541;47.458;9.644;2022-12-29T17:00:24;11.40;70.40
38936;DHT22;25541;47.458;9.644;2022-12-29T17:02:54;11.30;69.80
38936;DHT22;25541;47.458;9.644;2022-12-29T17:05:20;11.30;70.70
38936;DHT22;25541;47.458;9.644;2022-12-29T17:07:46;11.30;70.10
38936;DHT22;25541;47.458;9.644;2022-12-29T17:10:12;11.30;70.30
38936;DHT22;25541;47.458;9.644;2022-12-29T17:12:40;11.30;70.40
38936;DHT22;25541;47.458;9.644;2022-12-29T17:15:31;11.30;71.00
38936;DHT22;25541;47.458;9.644;2022-12-29T17:17:59;11.30;71.60
38936;DHT22;25541;47.458;9.644;2022-12-29T17:20:30;11.20;71.20
38936;DHT22;25541;47.458;9.644;2022-12-29T17:22:56;11.20;70.80
38936;DHT22;25541;47.458;9.644;2022-12-29T17:25:35;11.20;70.50
38936;DHT22;25541;47.458;9.644;2022-12-29T17:28:05;11.20;69.80
38936;DHT22;25541;47.458;9.644;2022-12-29T17:30:33;11.20;69.00
38936;DHT22;25541;47.458;9.644;2022-12-29T17:33:06;11.30;68.20
38936;DHT22;25541;47.458;9.644;2022-12-29T17:35:34;11.20;68.70
38936;DHT22;25541;47.458;9.644;2022-12-29T17:38:00;11.20;67.80
38936;DHT22;25541;47.458;9.644;2022-12-29T17:40:31;11.20;69.10
38936;DHT22;25541;47.458;9.644;2022-12-29T17:42:58;11.20;68.40
38936;DHT22;25541;47.458;9.644;2022-12-29T17:45:29;11.10;67.60
38936;DHT22;25541;47.458;9.644;2022-12-29T17:47:56;11.10;67.60
38936;DHT22;25541;47.458;9.644;2022-12-29T17:50:25;11.00;67.50
38936;DHT22;25541;47.458;9.644;2022-12-29T17:52:54;10.90;67.40
38936;DHT22;25541;47.458;9.644;2022-12-29T17:55:22;10.90;67.50
38936;DHT22;25541;47.458;9.644;2022-12-29T17:57:48;10.90;67.30
38936;DHT22;25541;47.458;9.644;2022-12-29T18:02:40;10.90;67.70
38936;DHT22;25541;47.458;9.644;2022-12-29T18:05:23;10.90;67.90
38936;DHT22;25541;47.458;9.644;2022-12-29T18:07:51;10.90;68.80
38936;DHT22;25541;47.458;9.644;2022-12-29T18:10:17;10.70;68.60
38936;DHT22;25541;47.458;9.644;2022-12-29T18:12:44;10.70;68.60
38936;DHT22;25541;47.458;9.644;2022-12-29T18:17:47;10.70;69.00
38936;DHT22;25541;47.458;9.644;2022-12-29T18:20:13;10.70;68.70
38936;DHT22;25541;47.458;9.644;2022-12-29T18:22:39;10.70;69.00
38936;DHT22;25541;47.458;9.644;2022-12-29T18:25:26;10.70;68.80
38936;DHT22;25541;47.458;9.644;2022-12-29T18:27:55;10.60;69.50
38936;DHT22;25541;47.458;9.644;2022-12-29T18:30:21;10.60;69.00
38936;DHT22;25541;47.458;9.644;2022-12-29T18:32:47;10.70;69.00
38936;DHT22;25541;47.458;9.644;2022-12-29T18:35:25;10.70;68.90
38936;DHT22;25541;47.458;9.644;2022-12-29T18:37:51;10.70;69.90
38936;DHT22;25541;47.458;9.644;2022-12-29T18:40:16;10.60;70.40
38936;DHT22;25541;47.458;9.644;2022-12-29T18:42:44;10.70;71.20
38936;DHT22;25541;47.458;9.644;2022-12-29T18:45:20;10.60;72.40
38936;DHT22;25541;47.458;9.644;2022-12-29T18:47:46;10.60;72.70
38936;DHT22;25541;47.458;9.644;2022-12-29T18:50:12;10.50;73.30
38936;DHT22;25541;47.458;9.644;2022-12-29T18:52:38;10.50;74.30
38936;DHT22;25541;47.458;9.644;2022-12-29T18:55:13;10.50;73.90
38936;DHT22;25541;47.458;9.644;2022-12-29T18:57:40;10.50;74.00
38936;DHT22;25541;47.458;9.644;2022-12-29T19:00:06;10.40;75.00
38936;DHT22;25541;47.458;9.644;2022-12-29T19:02:33;10.40;75.60
38936;DHT22;25541;47.458;9.644;2022-12-29T19:04:58;10.40;75.60
38936;DHT22;25541;47.458;9.644;2022-12-29T19:07:25;10.30;76.60
38936;DHT22;25541;47.458;9.644;2022-12-29T19:09:51;10.20;77.50
38936;DHT22;25541;47.458;9.644;2022-12-29T19:12:16;10.20;78.20
38936;DHT22;25541;47.458;9.644;2022-12-29T19:14:43;10.20;78.00
38936;DHT22;25541;47.458;9.644;2022-12-29T19:17:12;10.10;78.70
38936;DHT22;25541;47.458;9.644;2022-12-29T19:19:39;10.10;79.90
38936;DHT22;25541;47.458;9.644;2022-12-29T19:22:06;10.10;80.50
38936;DHT22;25541;47.458;9.644;2022-12-29T19:24:31;10.10;79.80
38936;DHT22;25541;47.458;9.644;2022-12-29T19:26:57;10.10;79.80
38936;DHT22;25541;47.458;9.644;2022-12-29T19:29:23;10.10;80.50
38936;DHT22;25541;47.458;9.644;2022-12-29T19:31:48;10.10;80.50
38936;DHT22;25541;47.458;9.644;2022-12-29T19:34:15;10.10;80.00
38936;DHT22;25541;47.458;9.644;2022-12-29T19:36:42;10.10;80.00
38936;DHT22;25541;47.458;9.644;2022-12-29T19:39:08;10.00;79.50
38936;DHT22;25541;47.458;9.644;2022-12-29T19:41:34;10.00;80.10
38936;DHT22;25541;47.458;9.644;2022-12-29T19:44:00;9.90;80.20
38936;DHT22;25541;47.458;9.644;2022-12-29T19:46:26;9.90;80.20
38936;DHT22;25541;47.458;9.644;2022-12-29T19:48:52;9.90;80.30
38936;DHT22;25541;47.458;9.644;2022-12-29T19:51:23;9.90;80.80
38936;DHT22;25541;47.458;9.644;2022-12-29T19:53:49;9.80;80.90
38936;DHT22;25541;47.458;9.644;2022-12-29T19:56:15;9.80;80.70
38936;DHT22;25541;47.458;9.644;2022-12-29T19:58:41;9.80;80.80
38936;DHT22;25541;47.458;9.644;2022-12-29T20:01:18;9.70;81.10
38936;DHT22;25541;47.458;9.644;2022-12-29T20:03:44;9.70;81.00
38936;DHT22;25541;47.458;9.644;2022-12-29T20:06:10;9.70;81.30
38936;DHT22;25541;47.458;9.644;2022-12-29T20:08:36;9.70;81.20
38936;DHT22;25541;47.458;9.644;2022-12-29T20:11:08;9.70;81.10
38936;DHT22;25541;47.458;9.644;2022-12-29T20:13:35;9.70;81.00
38936;DHT22;25541;47.458;9.644;2022-12-29T20:16:03;9.70;81.70
38936;DHT22;25541;47.458;9.644;2022-12-29T20:18:30;9.70;81.50
38936;DHT22;25541;47.458;9.644;2022-12-29T20:21:17;9.70;81.30
38936;DHT22;25541;47.458;9.644;2022-12-29T20:23:43;9.70;81.20
38936;DHT22;25541;47.458;9.644;2022-12-29T20:26:17;9.70;80.60
38936;DHT22;25541;47.458;9.644;2022-12-29T20:28:43;9.70;80.50
38936;DHT22;25541;47.458;9.644;2022-12-29T20:31:30;9.70;80.40
38936;DHT22;25541;47.458;9.644;2022-12-29T20:33:57;9.70;80.40
38936;DHT22;25541;47.458;9.644;2022-12-29T20:36:25;9.80;80.70
38936;DHT22;25541;47.458;9.644;2022-12-29T20:38:53;9.80;80.90
38936;DHT22;25541;47.458;9.644;2022-12-29T20:41:19;10.00;81.20
38936;DHT22;25541;47.458;9.644;2022-12-29T20:43:45;10.00;80.70
38936;DHT22;25541;47.458;9.644;2022-12-29T20:46:11;10.10;80.20
38936;DHT22;25541;47.458;9.644;2022-12-29T20:48:39;10.10;79.80
38936;DHT22;25541;47.458;9.644;2022-12-29T20:51:05;10.20;80.20
38936;DHT22;25541;47.458;9.644;2022-12-29T20:53:31;10.20;79.90
38936;DHT22;25541;47.458;9.644;2022-12-29T20:56:06;10.20;80.00
38936;DHT22;25541;47.458;9.644;2022-12-29T20:58:32;10.20;80.40
38936;DHT22;25541;47.458;9.644;2022-12-29T21:01:04;10.10;80.70
38936;DHT22;25541;47.458;9.644;2022-12-29T21:03:30;10.10;80.70
38936;DHT22;25541;47.458;9.644;2022-12-29T21:05:56;10.00;80.40
38936;DHT22;25541;47.458;9.644;2022-12-29T21:08:22;10.00;80.20
38936;DHT22;25541;47.458;9.644;2022-12-29T21:10:49;10.00;80.60
38936;DHT22;25541;47.458;9.644;2022-12-29T21:13:15;10.00;81.20
38936;DHT22;25541;47.458;9.644;2022-12-29T21:15:42;10.00;80.90
38936;DHT22;25541;47.458;9.644;2022-12-29T21:18:08;10.00;80.90
38936;DHT22;25541;47.458;9.644;2022-12-29T21:20:34;10.00;80.90
38936;DHT22;25541;47.458;9.644;2022-12-29T21:23:01;10.00;80.70